sensor_id;sensor_type;location;lat;lon;timestamp;pressure;altitude;pressure_sealevel;temperature;humidity
80186;BME280;69904;52.122;5.422;2023-11-19T00:00:07;100805.31;;;12.39;100.00
80186;BME280;69904;52.122;5.422;2023-11-19T00:02:41;100792.81;;;12.38;100.00
80186;BME280;69904;52.122;5.422;2023-11-19T00:05:09;100799.06;;;12.38;100.00
80186;BME280;69904;52.122;5.422;2023-11-19T00:07:38;100796.97;;;12.40;100.00
80186;BME280;69904;52.122;5.422;2023-11-19T00:10:12;100791.78;;;12.39;100.00
80186;BME280;69904;52.122;5.422;2023-11-19T00:12:43;100783.22;;;12.35;100.00
80186;BME280;69904;52.122;5.422;2023-11-19T00:15:10;100782.41;;;12.35;100.00
80186;BME280;69904;52.122;5.422;2023-11-19T00:17:39;100785.94;;;12.35;100.00
80186;BME280;69904;52.122;5.422;2023-11-19T00:20:15;100783.03;;;12.37;100.00
80186;BME280;69904;52.122;5.422;2023-11-19T00:22:42;100782.81;;;12.38;100.00
80186;BME280;69904;52.122;5.422;2023-11-19T00:25:11;100793.41;;;12.40;100.00
80186;BME280;69904;52.122;5.422;2023-11-19T00:27:38;100793.22;;;12.41;100.00
80186;BME280;69904;52.122;5.422;2023-11-19T00:30:05;100777.81;;;12.35;99.81
80186;BME280;69904;52.122;5.422;2023-11-19T00:32:33;100776.59;;;12.31;99.89
80186;BME280;69904;52.122;5.422;2023-11-19T00:34:59;100781.34;;;12.36;100.00
80186;BME280;69904;52.122;5.422;2023-11-19T00:37:26;100764.53;;;12.34;100.00
80186;BME280;69904;52.122;5.422;2023-11-19T00:39:52;100769.69;;;12.35;100.00
80186;BME280;69904;52.122;5.422;2023-11-19T00:42:19;100776.97;;;12.35;100.00
80186;BME280;69904;52.122;5.422;2023-11-19T00:44:46;100780.31;;;12.37;100.00
80186;BME280;69904;52.122;5.422;2023-11-19T00:47:16;100766.78;;;12.37;99.57
80186;BME280;69904;52.122;5.422;2023-11-19T00:49:42;100762.22;;;12.37;99.81
80186;BME280;69904;52.122;5.422;2023-11-19T00:52:09;100759.50;;;12.37;99.97
80186;BME280;69904;52.122;5.422;2023-11-19T00:54:35;100753.88;;;12.39;100.00
80186;BME280;69904;52.122;5.422;2023-11-19T00:57:02;100752.81;;;12.40;99.87
80186;BME280;69904;52.122;5.422;2023-11-19T00:59:28;100753.44;;;12.42;99.56
80186;BME280;69904;52.122;5.422;2023-11-19T01:01:55;100750.53;;;12.43;99.15
80186;BME280;69904;52.122;5.422;2023-11-19T01:04:22;100759.50;;;12.44;99.32
80186;BME280;69904;52.122;5.422;2023-11-19T01:06:51;100756.34;;;12.47;98.83
80186;BME280;69904;52.122;5.422;2023-11-19T01:09:17;100753.84;;;12.45;98.69
80186;BME280;69904;52.122;5.422;2023-11-19T01:11:44;100754.09;;;12.44;98.51
80186;BME280;69904;52.122;5.422;2023-11-19T01:14:10;100768.22;;;12.46;98.73
80186;BME280;69904;52.122;5.422;2023-11-19T01:16:37;100764.28;;;12.48;98.54
80186;BME280;69904;52.122;5.422;2023-11-19T01:19:03;100763.25;;;12.49;98.50
80186;BME280;69904;52.122;5.422;2023-11-19T01:21:43;100745.72;;;12.52;97.95
80186;BME280;69904;52.122;5.422;2023-11-19T01:24:09;100746.56;;;12.52;97.75
80186;BME280;69904;52.122;5.422;2023-11-19T01:26:38;100739.28;;;12.53;98.17
80186;BME280;69904;52.122;5.422;2023-11-19T01:29:05;100740.75;;;12.49;97.66
80186;BME280;69904;52.122;5.422;2023-11-19T01:31:31;100722.00;;;12.47;97.89
80186;BME280;69904;52.122;5.422;2023-11-19T01:34:00;100726.16;;;12.50;97.58
80186;BME280;69904;52.122;5.422;2023-11-19T01:36:26;100739.72;;;12.50;97.45
80186;BME280;69904;52.122;5.422;2023-11-19T01:38:53;100734.69;;;12.47;97.38
80186;BME280;69904;52.122;5.422;2023-11-19T01:41:19;100737.00;;;12.50;97.41
80186;BME280;69904;52.122;5.422;2023-11-19T01:43:46;100756.56;;;12.52;97.13
80186;BME280;69904;52.122;5.422;2023-11-19T01:46:13;100726.56;;;12.53;97.03
80186;BME280;69904;52.122;5.422;2023-11-19T01:48:44;100740.31;;;12.52;97.07
80186;BME280;69904;52.122;5.422;2023-11-19T01:51:14;100741.97;;;12.53;96.71
80186;BME280;69904;52.122;5.422;2023-11-19T01:53:43;100730.75;;;12.49;96.79
80186;BME280;69904;52.122;5.422;2023-11-19T01:56:13;100743.00;;;12.52;96.58
80186;BME280;69904;52.122;5.422;2023-11-19T01:58:41;100734.91;;;12.52;96.21
80186;BME280;69904;52.122;5.422;2023-11-19T02:01:09;100738.63;;;12.51;96.04
80186;BME280;69904;52.122;5.422;2023-11-19T02:03:37;100742.19;;;12.51;95.96
80186;BME280;69904;52.122;5.422;2023-11-19T02:06:04;100747.84;;;12.50;96.19
80186;BME280;69904;52.122;5.422;2023-11-19T02:08:31;100735.34;;;12.49;95.61
80186;BME280;69904;52.122;5.422;2023-11-19T02:10:57;100731.59;;;12.43;95.96
80186;BME280;69904;52.122;5.422;2023-11-19T02:13:25;100723.28;;;12.38;95.78
80186;BME280;69904;52.122;5.422;2023-11-19T02:15:52;100722.84;;;12.35;95.78
80186;BME280;69904;52.122;5.422;2023-11-19T02:18:23;100727.25;;;12.29;95.88
80186;BME280;69904;52.122;5.422;2023-11-19T02:20:50;100739.53;;;12.25;95.94
80186;BME280;69904;52.122;5.422;2023-11-19T02:23:18;100734.13;;;12.25;95.83
80186;BME280;69904;52.122;5.422;2023-11-19T02:25:51;100738.09;;;12.22;95.80
80186;BME280;69904;52.122;5.422;2023-11-19T02:28:20;100742.25;;;12.18;95.96
80186;BME280;69904;52.122;5.422;2023-11-19T02:30:47;100744.34;;;12.16;95.71
80186;BME280;69904;52.122;5.422;2023-11-19T02:33:13;100750.16;;;12.13;95.51
80186;BME280;69904;52.122;5.422;2023-11-19T02:35:41;100752.25;;;12.11;95.61
80186;BME280;69904;52.122;5.422;2023-11-19T02:38:07;100753.50;;;12.09;95.49
80186;BME280;69904;52.122;5.422;2023-11-19T02:40:34;100746.66;;;12.06;95.28
80186;BME280;69904;52.122;5.422;2023-11-19T02:43:01;100744.34;;;12.03;95.25
80186;BME280;69904;52.122;5.422;2023-11-19T02:45:31;100741.66;;;12.03;95.26
80186;BME280;69904;52.122;5.422;2023-11-19T02:47:57;100745.63;;;12.01;94.77
80186;BME280;69904;52.122;5.422;2023-11-19T02:50:25;100755.41;;;11.95;94.63
80186;BME280;69904;52.122;5.422;2023-11-19T02:52:55;100728.94;;;11.97;94.63
80186;BME280;69904;52.122;5.422;2023-11-19T02:55:25;100729.38;;;11.94;94.78
80186;BME280;69904;52.122;5.422;2023-11-19T02:57:54;100734.59;;;11.89;94.42
80186;BME280;69904;52.122;5.422;2023-11-19T03:00:22;100740.00;;;11.89;94.31
80186;BME280;69904;52.122;5.422;2023-11-19T03:03:02;100740.63;;;11.85;94.32
80186;BME280;69904;52.122;5.422;2023-11-19T03:05:44;100736.69;;;11.80;94.28
80186;BME280;69904;52.122;5.422;2023-11-19T03:08:11;100733.34;;;11.78;94.23
80186;BME280;69904;52.122;5.422;2023-11-19T03:10:49;100727.91;;;11.72;94.58
80186;BME280;69904;52.122;5.422;2023-11-19T03:13:15;100726.66;;;11.68;94.09
80186;BME280;69904;52.122;5.422;2023-11-19T03:15:43;100738.31;;;11.68;94.29
80186;BME280;69904;52.122;5.422;2023-11-19T03:18:10;100736.00;;;11.65;94.14
80186;BME280;69904;52.122;5.422;2023-11-19T03:20:36;100733.91;;;11.61;93.97
80186;BME280;69904;52.122;5.422;2023-11-19T03:23:02;100733.72;;;11.56;93.96
80186;BME280;69904;52.122;5.422;2023-11-19T03:25:29;100746.38;;;11.55;93.98
80186;BME280;69904;52.122;5.422;2023-11-19T03:28:03;100740.97;;;11.55;94.21
80186;BME280;69904;52.122;5.422;2023-11-19T03:30:30;100734.13;;;11.53;93.87
80186;BME280;69904;52.122;5.422;2023-11-19T03:33:00;100738.25;;;11.49;94.13
80186;BME280;69904;52.122;5.422;2023-11-19T03:35:27;100734.53;;;11.50;93.84
80186;BME280;69904;52.122;5.422;2023-11-19T03:37:54;100726.84;;;11.47;93.83
80186;BME280;69904;52.122;5.422;2023-11-19T03:40:20;100717.25;;;11.44;93.67
80186;BME280;69904;52.122;5.422;2023-11-19T03:42:47;100709.59;;;11.41;93.85
80186;BME280;69904;52.122;5.422;2023-11-19T03:45:14;100712.06;;;11.36;93.93
80186;BME280;69904;52.122;5.422;2023-11-19T03:47:42;100708.53;;;11.35;93.55
80186;BME280;69904;52.122;5.422;2023-11-19T03:50:08;100723.09;;;11.34;93.80
80186;BME280;69904;52.122;5.422;2023-11-19T03:52:35;100722.47;;;11.32;93.60
80186;BME280;69904;52.122;5.422;2023-11-19T03:55:09;100730.34;;;11.27;93.85
80186;BME280;69904;52.122;5.422;2023-11-19T03:57:36;100737.81;;;11.25;93.53
80186;BME280;69904;52.122;5.422;2023-11-19T04:00:03;100735.53;;;11.22;93.52
80186;BME280;69904;52.122;5.422;2023-11-19T04:02:36;100740.91;;;11.22;93.41
80186;BME280;69904;52.122;5.422;2023-11-19T04:05:03;100736.78;;;11.20;93.71
80186;BME280;69904;52.122;5.422;2023-11-19T04:07:31;100746.34;;;11.16;93.74
80186;BME280;69904;52.122;5.422;2023-11-19T04:09:58;100743.00;;;11.14;93.76
80186;BME280;69904;52.122;5.422;2023-11-19T04:12:25;100747.38;;;11.15;93.38
80186;BME280;69904;52.122;5.422;2023-11-19T04:14:52;100745.69;;;11.14;93.46
80186;BME280;69904;52.122;5.422;2023-11-19T04:17:21;100753.78;;;11.14;93.32
80186;BME280;69904;52.122;5.422;2023-11-19T04:19:49;100750.25;;;11.13;93.34
80186;BME280;69904;52.122;5.422;2023-11-19T04:22:15;100754.00;;;11.12;93.32
80186;BME280;69904;52.122;5.422;2023-11-19T04:24:42;100753.38;;;11.10;93.07
80186;BME280;69904;52.122;5.422;2023-11-19T04:27:10;100766.88;;;11.10;93.12
80186;BME280;69904;52.122;5.422;2023-11-19T04:29:36;100766.66;;;11.12;92.86
80186;BME280;69904;52.122;5.422;2023-11-19T04:32:03;100749.84;;;11.10;92.80
80186;BME280;69904;52.122;5.422;2023-11-19T04:34:31;100745.25;;;11.04;93.05
80186;BME280;69904;52.122;5.422;2023-11-19T04:36:58;100743.78;;;11.01;93.12
80186;BME280;69904;52.122;5.422;2023-11-19T04:39:38;100742.50;;;10.97;93.19
80186;BME280;69904;52.122;5.422;2023-11-19T04:42:05;100735.25;;;10.97;92.80
80186;BME280;69904;52.122;5.422;2023-11-19T04:44:33;100755.81;;;10.98;92.66
80186;BME280;69904;52.122;5.422;2023-11-19T04:46:59;100753.13;;;10.98;92.69
80186;BME280;69904;52.122;5.422;2023-11-19T04:49:26;100758.31;;;10.93;92.47
80186;BME280;69904;52.122;5.422;2023-11-19T04:51:53;100757.84;;;10.90;92.71
80186;BME280;69904;52.122;5.422;2023-11-19T04:54:20;100755.78;;;10.92;92.42
80186;BME280;69904;52.122;5.422;2023-11-19T04:56:46;100749.75;;;10.90;92.46
80186;BME280;69904;52.122;5.422;2023-11-19T04:59:13;100738.34;;;10.88;92.62
80186;BME280;69904;52.122;5.422;2023-11-19T05:01:40;100751.84;;;10.88;92.58
80186;BME280;69904;52.122;5.422;2023-11-19T05:04:07;100741.22;;;10.86;92.26
80186;BME280;69904;52.122;5.422;2023-11-19T05:06:34;100754.94;;;10.85;91.99
80186;BME280;69904;52.122;5.422;2023-11-19T05:09:01;100746.63;;;10.86;92.45
80186;BME280;69904;52.122;5.422;2023-11-19T05:11:32;100754.94;;;10.85;92.21
80186;BME280;69904;52.122;5.422;2023-11-19T05:13:59;100769.47;;;10.84;92.22
80186;BME280;69904;52.122;5.422;2023-11-19T05:16:25;100773.81;;;10.85;91.84
80186;BME280;69904;52.122;5.422;2023-11-19T05:18:52;100765.94;;;10.83;92.05
80186;BME280;69904;52.122;5.422;2023-11-19T05:21:19;100762.22;;;10.84;91.89
80186;BME280;69904;52.122;5.422;2023-11-19T05:23:45;100748.06;;;10.82;91.71
80186;BME280;69904;52.122;5.422;2023-11-19T05:26:20;100758.47;;;10.79;91.72
80186;BME280;69904;52.122;5.422;2023-11-19T05:28:48;100751.78;;;10.75;91.59
80186;BME280;69904;52.122;5.422;2023-11-19T05:31:16;100757.16;;;10.75;91.27
80186;BME280;69904;52.122;5.422;2023-11-19T05:33:44;100758.41;;;10.72;91.03
80186;BME280;69904;52.122;5.422;2023-11-19T05:36:11;100752.38;;;10.70;91.02
80186;BME280;69904;52.122;5.422;2023-11-19T05:38:39;100759.03;;;10.68;91.21
80186;BME280;69904;52.122;5.422;2023-11-19T05:41:05;100746.56;;;10.67;91.34
80186;BME280;69904;52.122;5.422;2023-11-19T05:43:32;100759.03;;;10.68;91.35
80186;BME280;69904;52.122;5.422;2023-11-19T05:45:59;100759.84;;;10.68;90.83
80186;BME280;69904;52.122;5.422;2023-11-19T05:48:26;100758.56;;;10.64;90.96
80186;BME280;69904;52.122;5.422;2023-11-19T05:50:53;100756.28;;;10.61;91.20
80186;BME280;69904;52.122;5.422;2023-11-19T05:53:20;100760.84;;;10.61;91.52
80186;BME280;69904;52.122;5.422;2023-11-19T05:55:46;100748.00;;;10.63;91.46
80186;BME280;69904;52.122;5.422;2023-11-19T05:58:27;100756.28;;;10.61;91.34
80186;BME280;69904;52.122;5.422;2023-11-19T06:00:56;100762.06;;;10.58;91.74
80186;BME280;69904;52.122;5.422;2023-11-19T06:03:23;100760.44;;;10.64;91.65
80186;BME280;69904;52.122;5.422;2023-11-19T06:05:50;100764.19;;;10.63;91.41
80186;BME280;69904;52.122;5.422;2023-11-19T06:08:16;100757.72;;;10.64;91.55
80186;BME280;69904;52.122;5.422;2023-11-19T06:10:44;100761.69;;;10.61;91.16
80186;BME280;69904;52.122;5.422;2023-11-19T06:13:13;100758.78;;;10.63;91.12
80186;BME280;69904;52.122;5.422;2023-11-19T06:15:41;100745.28;;;10.63;91.19
80186;BME280;69904;52.122;5.422;2023-11-19T06:18:08;100743.63;;;10.62;91.22
80186;BME280;69904;52.122;5.422;2023-11-19T06:20:35;100749.22;;;10.60;91.21
80186;BME280;69904;52.122;5.422;2023-11-19T06:23:04;100763.97;;;10.58;91.37
80186;BME280;69904;52.122;5.422;2023-11-19T06:25:31;100755.84;;;10.58;91.28
80186;BME280;69904;52.122;5.422;2023-11-19T06:27:57;100775.56;;;10.58;91.26
80186;BME280;69904;52.122;5.422;2023-11-19T06:30:23;100772.84;;;10.58;91.33
80186;BME280;69904;52.122;5.422;2023-11-19T06:32:51;100773.06;;;10.57;91.33
80186;BME280;69904;52.122;5.422;2023-11-19T06:35:17;100768.06;;;10.53;91.71
80186;BME280;69904;52.122;5.422;2023-11-19T06:37:44;100770.16;;;10.51;91.54
80186;BME280;69904;52.122;5.422;2023-11-19T06:40:10;100776.38;;;10.52;91.56
80186;BME280;69904;52.122;5.422;2023-11-19T06:42:38;100776.75;;;10.49;91.47
80186;BME280;69904;52.122;5.422;2023-11-19T06:45:06;100783.63;;;10.51;91.41
80186;BME280;69904;52.122;5.422;2023-11-19T06:47:32;100785.50;;;10.51;91.69
80186;BME280;69904;52.122;5.422;2023-11-19T06:49:59;100788.56;;;10.48;91.33
80186;BME280;69904;52.122;5.422;2023-11-19T06:52:25;100791.28;;;10.48;91.65
80186;BME280;69904;52.122;5.422;2023-11-19T06:54:52;100801.22;;;10.47;91.42
80186;BME280;69904;52.122;5.422;2023-11-19T06:57:18;100787.97;;;10.46;91.23
80186;BME280;69904;52.122;5.422;2023-11-19T06:59:46;100792.53;;;10.45;91.66
80186;BME280;69904;52.122;5.422;2023-11-19T07:02:13;100794.19;;;10.46;91.69
80186;BME280;69904;52.122;5.422;2023-11-19T07:04:40;100793.78;;;10.49;91.54
80186;BME280;69904;52.122;5.422;2023-11-19T07:07:07;100799.38;;;10.48;91.25
80186;BME280;69904;52.122;5.422;2023-11-19T07:09:33;100815.56;;;10.48;91.41
80186;BME280;69904;52.122;5.422;2023-11-19T07:12:00;100814.53;;;10.49;91.15
80186;BME280;69904;52.122;5.422;2023-11-19T07:14:27;100807.47;;;10.48;91.51
80186;BME280;69904;52.122;5.422;2023-11-19T07:16:54;100802.91;;;10.48;91.09
80186;BME280;69904;52.122;5.422;2023-11-19T07:19:22;100809.13;;;10.49;91.58
80186;BME280;69904;52.122;5.422;2023-11-19T07:21:48;100816.41;;;10.48;91.31
80186;BME280;69904;52.122;5.422;2023-11-19T07:24:15;100819.56;;;10.52;91.47
80186;BME280;69904;52.122;5.422;2023-11-19T07:26:43;100824.13;;;10.51;91.42
80186;BME280;69904;52.122;5.422;2023-11-19T07:29:10;100823.06;;;10.52;91.44
80186;BME280;69904;52.122;5.422;2023-11-19T07:31:37;100825.75;;;10.52;91.02
80186;BME280;69904;52.122;5.422;2023-11-19T07:34:03;100823.06;;;10.52;91.19
80186;BME280;69904;52.122;5.422;2023-11-19T07:36:32;100822.03;;;10.53;90.95
80186;BME280;69904;52.122;5.422;2023-11-19T07:38:58;100831.81;;;10.54;91.16
80186;BME280;69904;52.122;5.422;2023-11-19T07:41:25;100831.81;;;10.54;91.04
80186;BME280;69904;52.122;5.422;2023-11-19T07:43:52;100828.06;;;10.55;91.07
80186;BME280;69904;52.122;5.422;2023-11-19T07:46:19;100833.47;;;10.55;90.87
80186;BME280;69904;52.122;5.422;2023-11-19T07:48:46;100833.47;;;10.55;90.76
80186;BME280;69904;52.122;5.422;2023-11-19T07:51:15;100839.53;;;10.58;90.92
80186;BME280;69904;52.122;5.422;2023-11-19T07:53:41;100832.22;;;10.58;90.64
80186;BME280;69904;52.122;5.422;2023-11-19T07:56:08;100839.13;;;10.61;90.70
80186;BME280;69904;52.122;5.422;2023-11-19T07:58:35;100825.44;;;10.62;90.93
80186;BME280;69904;52.122;5.422;2023-11-19T08:01:01;100828.13;;;10.62;90.95
80186;BME280;69904;52.122;5.422;2023-11-19T08:03:28;100827.28;;;10.62;91.05
80186;BME280;69904;52.122;5.422;2023-11-19T08:05:56;100829.59;;;10.65;90.90
80186;BME280;69904;52.122;5.422;2023-11-19T08:08:25;100821.94;;;10.68;90.91
80186;BME280;69904;52.122;5.422;2023-11-19T08:10:52;100819.25;;;10.68;91.03
80186;BME280;69904;52.122;5.422;2023-11-19T08:13:20;100834.00;;;10.72;90.71
80186;BME280;69904;52.122;5.422;2023-11-19T08:15:47;100829.44;;;10.73;90.81
80186;BME280;69904;52.122;5.422;2023-11-19T08:18:13;100826.94;;;10.71;91.21
80186;BME280;69904;52.122;5.422;2023-11-19T08:20:40;100829.44;;;10.73;91.25
80186;BME280;69904;52.122;5.422;2023-11-19T08:23:07;100827.16;;;10.76;91.34
80186;BME280;69904;52.122;5.422;2023-11-19T08:25:34;100823.84;;;10.81;91.06
80186;BME280;69904;52.122;5.422;2023-11-19T08:28:01;100825.72;;;10.80;91.25
80186;BME280;69904;52.122;5.422;2023-11-19T08:30:30;100819.50;;;10.80;91.14
80186;BME280;69904;52.122;5.422;2023-11-19T08:32:56;100825.53;;;10.82;90.87
80186;BME280;69904;52.122;5.422;2023-11-19T08:35:23;100825.97;;;10.85;90.84
80186;BME280;69904;52.122;5.422;2023-11-19T08:37:50;100833.69;;;10.88;90.84
80186;BME280;69904;52.122;5.422;2023-11-19T08:40:16;100843.44;;;10.89;90.50
80186;BME280;69904;52.122;5.422;2023-11-19T08:42:43;100842.84;;;10.94;90.07
80186;BME280;69904;52.122;5.422;2023-11-19T08:45:10;100831.63;;;10.97;90.17
80186;BME280;69904;52.122;5.422;2023-11-19T08:47:39;100841.22;;;11.00;89.81
80186;BME280;69904;52.122;5.422;2023-11-19T08:50:07;100846.84;;;11.05;89.61
80186;BME280;69904;52.122;5.422;2023-11-19T08:52:34;100847.47;;;11.07;89.20
80186;BME280;69904;52.122;5.422;2023-11-19T08:55:01;100842.91;;;11.07;89.14
80186;BME280;69904;52.122;5.422;2023-11-19T08:57:27;100835.63;;;11.08;89.23
80186;BME280;69904;52.122;5.422;2023-11-19T08:59:54;100832.13;;;11.14;88.85
80186;BME280;69904;52.122;5.422;2023-11-19T09:02:20;100856.06;;;11.23;88.88
80186;BME280;69904;52.122;5.422;2023-11-19T09:04:47;100849.00;;;11.29;88.45
80186;BME280;69904;52.122;5.422;2023-11-19T09:07:16;100843.44;;;11.37;88.55
80186;BME280;69904;52.122;5.422;2023-11-19T09:09:42;100834.91;;;11.40;88.04
80186;BME280;69904;52.122;5.422;2023-11-19T09:12:09;100841.59;;;11.37;87.78
80186;BME280;69904;52.122;5.422;2023-11-19T09:14:35;100846.16;;;11.37;87.78
80186;BME280;69904;52.122;5.422;2023-11-19T09:17:02;100845.94;;;11.38;87.67
80186;BME280;69904;52.122;5.422;2023-11-19T09:19:28;100846.38;;;11.42;87.89
80186;BME280;69904;52.122;5.422;2023-11-19T09:21:54;100839.09;;;11.43;87.52
80186;BME280;69904;52.122;5.422;2023-11-19T09:24:21;100837.44;;;11.42;87.70
80186;BME280;69904;52.122;5.422;2023-11-19T09:26:47;100853.84;;;11.40;87.55
80186;BME280;69904;52.122;5.422;2023-11-19T09:29:14;100846.75;;;11.39;87.37
80186;BME280;69904;52.122;5.422;2023-11-19T09:31:40;100834.91;;;11.40;87.38
80186;BME280;69904;52.122;5.422;2023-11-19T09:34:07;100842.84;;;11.42;87.56
80186;BME280;69904;52.122;5.422;2023-11-19T09:36:34;100856.97;;;11.44;87.31
80186;BME280;69904;52.122;5.422;2023-11-19T09:39:00;100850.53;;;11.45;87.14
80186;BME280;69904;52.122;5.422;2023-11-19T09:41:29;100855.13;;;11.51;87.00
80186;BME280;69904;52.122;5.422;2023-11-19T09:43:56;100839.34;;;11.61;86.70
80186;BME280;69904;52.122;5.422;2023-11-19T09:46:23;100829.16;;;11.63;86.88
80186;BME280;69904;52.122;5.422;2023-11-19T09:48:52;100846.22;;;11.63;86.64
80186;BME280;69904;52.122;5.422;2023-11-19T09:51:21;100842.50;;;11.64;86.71
80186;BME280;69904;52.122;5.422;2023-11-19T09:53:48;100842.69;;;11.63;86.51
80186;BME280;69904;52.122;5.422;2023-11-19T09:56:16;100830.84;;;11.64;86.53
80186;BME280;69904;52.122;5.422;2023-11-19T09:58:45;100838.72;;;11.65;86.40
80186;BME280;69904;52.122;5.422;2023-11-19T10:01:15;100819.81;;;11.65;86.56
80186;BME280;69904;52.122;5.422;2023-11-19T10:03:46;100831.91;;;11.69;86.04
80186;BME280;69904;52.122;5.422;2023-11-19T10:06:14;100829.66;;;11.79;86.06
80186;BME280;69904;52.122;5.422;2023-11-19T10:08:43;100834.84;;;11.88;85.52
80186;BME280;69904;52.122;5.422;2023-11-19T10:11:10;100821.53;;;11.93;85.59
80186;BME280;69904;52.122;5.422;2023-11-19T10:13:41;100836.13;;;12.05;85.19
80186;BME280;69904;52.122;5.422;2023-11-19T10:16:11;100819.47;;;12.14;84.83
80186;BME280;69904;52.122;5.422;2023-11-19T10:18:46;100804.28;;;12.27;84.60
80186;BME280;69904;52.122;5.422;2023-11-19T10:21:13;100828.41;;;12.41;83.69
80186;BME280;69904;52.122;5.422;2023-11-19T10:26:19;100832.28;;;12.85;81.69
80186;BME280;69904;52.122;5.422;2023-11-19T10:28:46;100797.31;;;12.77;81.24
80186;BME280;69904;52.122;5.422;2023-11-19T10:31:14;100800.22;;;12.82;81.40
80186;BME280;69904;52.122;5.422;2023-11-19T10:33:41;100807.00;;;13.04;80.42
80186;BME280;69904;52.122;5.422;2023-11-19T10:36:07;100797.81;;;13.18;79.62
80186;BME280;69904;52.122;5.422;2023-11-19T10:38:34;100809.69;;;13.11;79.14
80186;BME280;69904;52.122;5.422;2023-11-19T10:41:00;100797.63;;;13.13;79.26
80186;BME280;69904;52.122;5.422;2023-11-19T10:43:27;100806.66;;;13.38;79.50
80186;BME280;69904;52.122;5.422;2023-11-19T10:46:12;100796.66;;;13.39;78.53
80186;BME280;69904;52.122;5.422;2023-11-19T10:48:39;100797.06;;;13.42;78.50
80186;BME280;69904;52.122;5.422;2023-11-19T10:51:07;100799.34;;;13.45;78.62
80186;BME280;69904;52.122;5.422;2023-11-19T10:53:36;100811.25;;;13.76;78.21
80186;BME280;69904;52.122;5.422;2023-11-19T10:56:06;100824.16;;;13.80;76.67
80186;BME280;69904;52.122;5.422;2023-11-19T10:58:35;100807.13;;;13.98;77.11
80186;BME280;69904;52.122;5.422;2023-11-19T11:01:09;100787.56;;;14.14;76.58
80186;BME280;69904;52.122;5.422;2023-11-19T11:03:39;100787.22;;;14.29;74.88
80186;BME280;69904;52.122;5.422;2023-11-19T11:06:08;100817.09;;;14.29;74.75
80186;BME280;69904;52.122;5.422;2023-11-19T11:08:37;100813.09;;;14.31;74.62
80186;BME280;69904;52.122;5.422;2023-11-19T11:11:05;100802.97;;;14.45;74.84
80186;BME280;69904;52.122;5.422;2023-11-19T11:13:33;100802.22;;;14.56;73.67
80186;BME280;69904;52.122;5.422;2023-11-19T11:16:00;100806.06;;;14.49;74.04
80186;BME280;69904;52.122;5.422;2023-11-19T11:18:28;100790.28;;;14.39;73.73
80186;BME280;69904;52.122;5.422;2023-11-19T11:21:08;100797.41;;;14.33;73.13
80186;BME280;69904;52.122;5.422;2023-11-19T11:23:55;100795.28;;;14.42;73.97
80186;BME280;69904;52.122;5.422;2023-11-19T11:26:41;100800.53;;;14.37;73.13
80186;BME280;69904;52.122;5.422;2023-11-19T11:29:24;100803.44;;;13.86;74.51
80186;BME280;69904;52.122;5.422;2023-11-19T11:37:39;100791.66;;;13.99;75.58
80186;BME280;69904;52.122;5.422;2023-11-19T11:40:15;100786.34;;;13.85;75.45
80186;BME280;69904;52.122;5.422;2023-11-19T11:42:42;100815.53;;;13.59;75.94
80186;BME280;69904;52.122;5.422;2023-11-19T11:45:09;100800.38;;;13.44;76.85
80186;BME280;69904;52.122;5.422;2023-11-19T11:50:13;100782.75;;;13.29;77.42
80186;BME280;69904;52.122;5.422;2023-11-19T11:55:52;100784.78;;;13.40;76.90
80186;BME280;69904;52.122;5.422;2023-11-19T11:58:19;100798.16;;;13.35;77.37
80186;BME280;69904;52.122;5.422;2023-11-19T12:00:48;100791.72;;;13.29;77.80
80186;BME280;69904;52.122;5.422;2023-11-19T12:03:14;100779.03;;;13.23;77.54
80186;BME280;69904;52.122;5.422;2023-11-19T12:05:45;100781.72;;;13.23;77.80
80186;BME280;69904;52.122;5.422;2023-11-19T12:08:14;100782.38;;;13.19;77.73
80186;BME280;69904;52.122;5.422;2023-11-19T12:10:47;100772.59;;;13.11;77.63
80186;BME280;69904;52.122;5.422;2023-11-19T12:13:16;100777.63;;;13.07;78.04
80186;BME280;69904;52.122;5.422;2023-11-19T12:18:29;100770.47;;;13.20;78.26
80186;BME280;69904;52.122;5.422;2023-11-19T12:20:56;100771.13;;;13.15;77.96
80186;BME280;69904;52.122;5.422;2023-11-19T12:23:23;100768.22;;;13.17;78.49
80186;BME280;69904;52.122;5.422;2023-11-19T12:25:50;100765.50;;;13.10;78.21
80186;BME280;69904;52.122;5.422;2023-11-19T12:28:16;100767.19;;;13.04;78.69
80186;BME280;69904;52.122;5.422;2023-11-19T12:30:46;100770.53;;;13.00;78.36
80186;BME280;69904;52.122;5.422;2023-11-19T12:33:14;100779.31;;;12.95;78.93
80186;BME280;69904;52.122;5.422;2023-11-19T12:35:45;100771.00;;;12.90;78.79
80186;BME280;69904;52.122;5.422;2023-11-19T12:38:25;100773.94;;;12.89;78.76
80186;BME280;69904;52.122;5.422;2023-11-19T12:41:09;100769.34;;;12.89;79.25
80186;BME280;69904;52.122;5.422;2023-11-19T12:43:39;100778.09;;;12.91;79.00
80186;BME280;69904;52.122;5.422;2023-11-19T12:46:19;100777.44;;;12.96;79.06
80186;BME280;69904;52.122;5.422;2023-11-19T12:48:47;100776.59;;;13.02;78.83
80186;BME280;69904;52.122;5.422;2023-11-19T12:51:15;100775.56;;;13.03;79.20
80186;BME280;69904;52.122;5.422;2023-11-19T12:54:07;100770.34;;;13.01;79.10
80186;BME280;69904;52.122;5.422;2023-11-19T12:56:34;100773.66;;;13.03;79.10
80186;BME280;69904;52.122;5.422;2023-11-19T12:59:11;100767.81;;;13.06;78.80
80186;BME280;69904;52.122;5.422;2023-11-19T13:01:38;100778.03;;;13.04;78.50
80186;BME280;69904;52.122;5.422;2023-11-19T13:04:16;100769.06;;;13.04;78.89
80186;BME280;69904;52.122;5.422;2023-11-19T13:06:45;100787.84;;;12.99;78.81
80186;BME280;69904;52.122;5.422;2023-11-19T13:09:30;100768.69;;;12.94;79.62
80186;BME280;69904;52.122;5.422;2023-11-19T13:11:57;100762.50;;;12.87;80.24